Time;durP1;ratioP1;P1;durP2;ratioP2;P2;SDS_P1;SDS_P2;PMS_P1;PMS_P2;Temp;Humidity;BMP_temperature;BMP_pressure;BME280_temperature;BME280_humidity;BME280_pressure;Samples;Min_cycle;Max_cycle;Signal;HPM_P1;HPM_P2
2023/09/12 00:00:42;;;;;;;;;;;;;;;20.01;91.01;101202.50;5022422;28;1010;-74
2023/09/12 00:03:08;;;;;;;;;;;;;;;20.00;91.44;101199.06;5022773;28;1266;-74
2023/09/12 00:05:33;;;;;;;;;;;;;;;20.00;91.33;101212.22;5026128;28;1474;-73
2023/09/12 00:07:58;;;;;;;;;;;;;;;19.98;91.30;101203.69;5029448;28;1330;-74
2023/09/12 00:10:23;;;;;;;;;;;;;;;19.97;91.50;101207.31;5024665;28;1165;-77
2023/09/12 00:12:49;;;;;;;;;;;;;;;19.96;91.38;101215.41;5027797;28;1911;-77
2023/09/12 00:15:14;;;;;;;;;;;;;;;19.94;91.37;101218.19;5019930;28;1130;-77
2023/09/12 00:17:39;;;;;;;;;;;;;;;19.92;91.38;101217.56;5007580;28;2027;-77
2023/09/12 00:20:06;;;;;;;;;;;;;;;19.85;91.29;101214.00;5029704;28;1670;-77
2023/09/12 00:22:31;;;;;;;;;;;;;;;19.80;91.67;101221.63;5039412;28;1076;-77
2023/09/12 00:24:56;;;;;;;;;;;;;;;19.74;91.83;101222.31;5028566;28;1145;-77
2023/09/12 00:27:22;;;;;;;;;;;;;;;19.70;92.14;101223.66;5042318;28;1246;-77
2023/09/12 00:29:47;;;;;;;;;;;;;;;19.70;92.31;101221.03;5028492;28;1172;-76
2023/09/12 00:32:12;;;;;;;;;;;;;;;19.68;92.50;101223.03;5041147;28;1952;-77
2023/09/12 00:34:37;;;;;;;;;;;;;;;19.66;92.53;101230.25;5035475;28;1284;-77
2023/09/12 00:37:03;;;;;;;;;;;;;;;19.66;93.01;101230.25;5033302;28;1328;-77
2023/09/12 00:39:28;;;;;;;;;;;;;;;19.63;92.76;101226.97;5031962;28;1113;-77
2023/09/12 00:41:53;;;;;;;;;;;;;;;19.65;92.96;101233.88;5042524;28;1532;-77
2023/09/12 00:44:18;;;;;;;;;;;;;;;19.66;93.25;101240.78;5029756;28;1154;-77
2023/09/12 00:46:44;;;;;;;;;;;;;;;19.71;93.42;101248.97;5029835;28;1152;-78
2023/09/12 00:49:10;;;;;;;;;;;;;;;19.74;93.38;101248.63;5024942;28;1268;-78
2023/09/12 00:51:35;;;;;;;;;;;;;;;19.71;93.52;101244.53;5031912;28;1898;-77
2023/09/12 00:54:01;;;;;;;;;;;;;;;19.69;93.62;101241.25;5033791;28;1460;-77
2023/09/12 00:56:26;;;;;;;;;;;;;;;19.68;94.05;101244.06;5030552;28;1157;-77
2023/09/12 00:58:52;;;;;;;;;;;;;;;19.63;93.89;101237.50;5023246;28;1437;-78
2023/09/12 01:01:18;;;;;;;;;;;;;;;19.66;93.88;101225.00;5025088;28;981;-77
2023/09/12 01:03:43;;;;;;;;;;;;;;;19.67;93.98;101231.88;5022391;28;1196;-77
2023/09/12 01:06:09;;;;;;;;;;;;;;;19.69;94.13;101225.47;5024255;28;1337;-78
2023/09/12 01:08:37;;;;;;;;;;;;;;;19.67;93.85;101208.19;5020632;28;1153;-74
2023/09/12 01:11:02;;;;;;;;;;;;;;;19.63;93.95;101215.66;5026591;28;1242;-76
2023/09/12 01:13:28;;;;;;;;;;;;;;;19.57;93.94;101217.13;5026268;28;1890;-74
2023/09/12 01:15:53;;;;;;;;;;;;;;;19.49;94.14;101204.00;5025942;28;1506;-75
2023/09/12 01:18:18;;;;;;;;;;;;;;;19.45;94.31;101207.19;5027935;28;1268;-76
2023/09/12 01:20:54;;;;;;;;;;;;;;;19.43;94.40;101204.72;5025627;28;1422;-74
2023/09/12 01:23:49;;;;;;;;;;;;;;;19.40;94.34;101205.06;5020484;28;935;-74
2023/09/12 01:26:14;;;;;;;;;;;;;;;19.36;94.47;101188.81;4974948;28;1219;-74
2023/09/12 01:28:42;;;;;;;;;;;;;;;19.33;94.28;101183.09;5025860;28;1301;-75
2023/09/12 01:31:08;;;;;;;;;;;;;;;19.31;94.01;101191.13;5027897;28;1130;-73
2023/09/12 01:33:33;;;;;;;;;;;;;;;19.29;94.20;101187.88;5034525;28;1957;-75
2023/09/12 01:35:58;;;;;;;;;;;;;;;19.25;94.15;101186.56;5034774;28;1121;-74
2023/09/12 01:38:24;;;;;;;;;;;;;;;19.23;94.03;101190.38;5034553;28;1399;-74
2023/09/12 01:40:50;;;;;;;;;;;;;;;19.17;93.95;101201.59;5024745;28;1418;-75
2023/09/12 01:43:16;;;;;;;;;;;;;;;19.10;94.14;101194.38;5026704;28;1159;-76
2023/09/12 01:45:42;;;;;;;;;;;;;;;19.05;94.26;101196.72;5026927;28;1120;-77
2023/09/12 01:48:08;;;;;;;;;;;;;;;19.01;94.57;101200.66;5029860;28;2332;-74
2023/09/12 01:50:34;;;;;;;;;;;;;;;18.95;94.79;101201.34;5020337;28;1158;-75
2023/09/12 01:53:00;;;;;;;;;;;;;;;18.91;95.04;101194.78;5032847;28;1894;-74
2023/09/12 01:55:26;;;;;;;;;;;;;;;18.90;95.18;101198.41;5031706;28;1102;-74
2023/09/12 01:57:51;;;;;;;;;;;;;;;18.88;95.39;101200.41;5027101;28;1018;-77
2023/09/12 02:00:17;;;;;;;;;;;;;;;18.87;95.43;101198.75;5029218;28;1020;-77
2023/09/12 02:02:42;;;;;;;;;;;;;;;18.87;95.55;101200.53;5029743;28;1110;-77
2023/09/12 02:05:11;;;;;;;;;;;;;;;18.86;95.71;101202.34;5026018;28;1272;-78
2023/09/12 02:07:38;;;;;;;;;;;;;;;18.87;95.80;101200.53;5028554;28;1252;-78
2023/09/12 02:10:04;;;;;;;;;;;;;;;18.86;95.89;101202.34;5025636;28;1208;-77
2023/09/12 02:12:29;;;;;;;;;;;;;;;18.81;95.95;101200.25;5028729;28;1902;-78
2023/09/12 02:14:54;;;;;;;;;;;;;;;18.81;96.11;101199.44;5029256;28;1212;-78
2023/09/12 02:17:20;;;;;;;;;;;;;;;18.79;96.20;101185.63;5028072;28;1382;-77
2023/09/12 02:19:47;;;;;;;;;;;;;;;18.79;96.53;101183.00;5023892;28;1158;-78
2023/09/12 02:22:12;;;;;;;;;;;;;;;18.78;96.47;101189.25;5031714;28;1153;-77
2023/09/12 02:24:37;;;;;;;;;;;;;;;18.79;96.56;101193.50;5033505;28;1228;-78
2023/09/12 02:27:02;;;;;;;;;;;;;;;18.80;96.68;101195.97;5037070;28;1199;-78
2023/09/12 02:29:27;;;;;;;;;;;;;;;18.80;96.74;101198.59;5038290;28;1244;-78
2023/09/12 02:31:53;;;;;;;;;;;;;;;18.80;96.84;101208.28;5042342;28;1902;-77
2023/09/12 02:34:18;;;;;;;;;;;;;;;18.79;96.96;101196.16;5030332;28;1098;-78
2023/09/12 02:36:43;;;;;;;;;;;;;;;18.79;97.09;101202.22;5031655;28;1457;-78
2023/09/12 02:39:08;;;;;;;;;;;;;;;18.78;97.06;101202.41;5035464;28;1203;-77
2023/09/12 02:41:34;;;;;;;;;;;;;;;18.80;97.11;101200.41;5033310;28;1128;-78
2023/09/12 02:43:59;;;;;;;;;;;;;;;18.84;97.17;101204.34;5034985;28;1201;-77
2023/09/12 02:46:24;;;;;;;;;;;;;;;18.86;97.08;101201.53;5039124;28;1328;-77
2023/09/12 02:48:49;;;;;;;;;;;;;;;18.85;97.16;101200.72;5034814;28;1153;-78
2023/09/12 02:51:14;;;;;;;;;;;;;;;18.82;97.34;101201.06;5037509;28;1068;-77
2023/09/12 02:53:40;;;;;;;;;;;;;;;18.79;97.43;101201.41;5031579;28;1951;-77
2023/09/12 02:56:05;;;;;;;;;;;;;;;18.76;97.34;101210.47;5032224;28;1450;-78
2023/09/12 02:58:30;;;;;;;;;;;;;;;18.76;97.41;101207.00;5027968;28;1391;-78
2023/09/12 03:00:55;;;;;;;;;;;;;;;18.76;97.35;101207.00;5035219;28;1228;-78
2023/09/12 03:03:20;;;;;;;;;;;;;;;18.78;97.59;101205.03;5036396;28;1349;-77
2023/09/12 03:05:46;;;;;;;;;;;;;;;18.82;97.47;101201.06;5033608;28;1178;-78
2023/09/12 03:08:11;;;;;;;;;;;;;;;18.86;97.48;101202.34;5034159;28;1323;-78
2023/09/12 03:10:37;;;;;;;;;;;;;;;18.86;97.57;101204.97;5028367;28;1156;-78
2023/09/12 03:13:02;;;;;;;;;;;;;;;18.84;97.48;101204.34;5026598;28;1978;-77
2023/09/12 03:15:27;;;;;;;;;;;;;;;18.86;97.67;101191.84;5031358;28;1190;-77
2023/09/12 03:17:52;;;;;;;;;;;;;;;18.86;97.82;101199.72;5023243;28;1236;-78
2023/09/12 03:20:17;;;;;;;;;;;;;;;18.78;97.93;101195.31;5025762;28;975;-77
2023/09/12 03:22:43;;;;;;;;;;;;;;;18.72;97.86;101198.63;5020102;28;1008;-78
2023/09/12 03:25:08;;;;;;;;;;;;;;;18.69;98.01;101195.50;5020654;28;1184;-77
2023/09/12 03:27:33;;;;;;;;;;;;;;;18.66;98.06;101193.22;5036780;28;1208;-78
2023/09/12 03:29:58;;;;;;;;;;;;;;;18.61;98.10;101187.63;5036407;28;1587;-77
2023/09/12 03:32:24;;;;;;;;;;;;;;;18.57;98.28;101187.97;5034627;28;1898;-77
2023/09/12 03:34:49;;;;;;;;;;;;;;;18.55;98.23;101192.56;5035969;28;1100;-78
2023/09/12 03:37:14;;;;;;;;;;;;;;;18.55;98.30;101189.13;5038255;28;1068;-78
2023/09/12 03:39:39;;;;;;;;;;;;;;;18.53;98.34;101197.19;5035667;28;1215;-78
2023/09/12 03:42:04;;;;;;;;;;;;;;;18.50;98.51;101197.50;5033803;28;1165;-77
2023/09/12 03:44:30;;;;;;;;;;;;;;;18.47;98.56;101186.53;5035721;28;1141;-77
2023/09/12 03:46:55;;;;;;;;;;;;;;;18.39;98.48;101189.97;5038937;28;1154;-78
2023/09/12 03:49:20;;;;;;;;;;;;;;;18.36;98.50;101186.88;5034418;28;1089;-77
2023/09/12 03:51:45;;;;;;;;;;;;;;;18.34;98.59;101184.41;5035545;28;1894;-77
2023/09/12 03:54:10;;;;;;;;;;;;;;;18.31;98.44;101176.88;5037136;28;1544;-77
2023/09/12 03:56:36;;;;;;;;;;;;;;;18.29;98.22;101178.84;5033346;28;1199;-78
2023/09/12 03:59:01;;;;;;;;;;;;;;;18.22;97.97;101188.38;5028943;28;1143;-78
2023/09/12 04:01:26;;;;;;;;;;;;;;;18.16;98.08;101184.59;5027739;28;963;-77
2023/09/12 04:03:52;;;;;;;;;;;;;;;18.14;98.38;101180.50;5034253;28;1094;-78
2023/09/12 04:06:17;;;;;;;;;;;;;;;18.12;98.26;101177.22;5033442;28;1421;-78
2023/09/12 04:08:42;;;;;;;;;;;;;;;18.10;98.23;101173.94;5028746;28;1127;-77
2023/09/12 04:11:07;;;;;;;;;;;;;;;18.08;98.24;101173.31;5032731;28;1220;-77
2023/09/12 04:13:32;;;;;;;;;;;;;;;18.09;98.16;101172.31;5023445;28;1898;-78
2023/09/12 04:15:58;;;;;;;;;;;;;;;18.09;98.25;101167.06;5031186;28;1209;-77
2023/09/12 04:18:23;;;;;;;;;;;;;;;18.09;98.20;101167.88;5025643;28;1033;-77
2023/09/12 04:20:48;;;;;;;;;;;;;;;18.12;98.16;101171.97;5025678;28;1032;-77
2023/09/12 04:23:13;;;;;;;;;;;;;;;18.11;98.09;101162.47;5026458;28;1124;-78
2023/09/12 04:25:41;;;;;;;;;;;;;;;18.10;98.29;101173.94;5017400;28;1071;-78
2023/09/12 04:28:06;;;;;;;;;;;;;;;18.07;98.63;101166.41;5026790;28;1161;-78
2023/09/12 04:30:31;;;;;;;;;;;;;;;18.12;98.87;101174.59;5026913;28;1399;-78
2023/09/12 04:32:57;;;;;;;;;;;;;;;18.16;99.09;101173.28;5032598;28;1926;-77
2023/09/12 04:35:22;;;;;;;;;;;;;;;18.21;99.14;101182.31;5037307;28;1191;-77
2023/09/12 04:37:47;;;;;;;;;;;;;;;18.26;99.35;101179.19;5038623;28;1068;-77
2023/09/12 04:40:12;;;;;;;;;;;;;;;18.31;99.27;101182.13;5035063;28;1123;-78
2023/09/12 04:42:38;;;;;;;;;;;;;;;18.31;99.22;101182.13;5024408;28;1081;-77
2023/09/12 04:45:03;;;;;;;;;;;;;;;18.26;99.33;101184.44;5031139;28;1074;-77
2023/09/12 04:47:28;;;;;;;;;;;;;;;18.24;99.38;101183.78;5040244;28;1281;-78
2023/09/12 04:49:53;;;;;;;;;;;;;;;18.23;99.51;101184.75;5026522;28;986;-78
2023/09/12 04:52:19;;;;;;;;;;;;;;;18.24;99.74;101186.41;5034430;28;1964;-77
2023/09/12 04:54:44;;;;;;;;;;;;;;;18.22;99.79;101188.38;5041167;28;1194;-77
2023/09/12 04:57:09;;;;;;;;;;;;;;;18.20;99.90;101177.22;5033268;28;1416;-77
2023/09/12 04:59:34;;;;;;;;;;;;;;;18.18;100.00;101181.81;5034409;28;1030;-77
2023/09/12 05:01:59;;;;;;;;;;;;;;;18.17;100.00;101186.22;5037540;28;1044;-77
2023/09/12 05:04:25;;;;;;;;;;;;;;;18.15;100.00;101182.97;5033975;28;1112;-77
2023/09/12 05:06:50;;;;;;;;;;;;;;;18.16;100.00;101183.78;5037593;28;1185;-77
2023/09/12 05:09:16;;;;;;;;;;;;;;;18.16;100.00;101179.34;5033796;28;1048;-77
2023/09/12 05:11:41;;;;;;;;;;;;;;;18.15;100.00;101182.16;5033778;28;1902;-77
2023/09/12 05:14:06;;;;;;;;;;;;;;;18.17;100.00;101174.91;5038151;28;978;-77
2023/09/12 05:16:31;;;;;;;;;;;;;;;18.17;100.00;101191.47;5031616;28;1019;-77
2023/09/12 05:18:56;;;;;;;;;;;;;;;18.17;100.00;101196.72;5030223;28;1030;-77
2023/09/12 05:21:22;;;;;;;;;;;;;;;18.24;100.00;101202.16;5028070;28;1132;-78
2023/09/12 05:23:47;;;;;;;;;;;;;;;18.25;100.00;101195.94;5028013;28;1113;-74
2023/09/12 05:26:12;;;;;;;;;;;;;;;18.22;100.00;101193.63;5020678;28;1165;-75
2023/09/12 05:28:37;;;;;;;;;;;;;;;18.19;100.00;101194.78;5023120;28;1027;-74
2023/09/12 05:31:03;;;;;;;;;;;;;;;18.23;100.00;101200.50;5021594;28;989;-74
2023/09/12 05:33:28;;;;;;;;;;;;;;;18.24;100.00;101196.91;5018525;28;1987;-75
2023/09/12 05:35:53;;;;;;;;;;;;;;;18.27;100.00;101193.94;5029874;28;1020;-75
2023/09/12 05:38:18;;;;;;;;;;;;;;;18.27;100.00;101201.81;5028181;28;958;-75
2023/09/12 05:40:44;;;;;;;;;;;;;;;18.24;100.00;101204.78;5035118;28;1044;-75
2023/09/12 05:43:09;;;;;;;;;;;;;;;18.22;100.00;101204.13;5038802;28;1122;-75
2023/09/12 05:45:34;;;;;;;;;;;;;;;18.23;100.00;101190.81;5034919;28;1028;-74
2023/09/12 05:47:59;;;;;;;;;;;;;;;18.20;100.00;101190.34;5038092;28;1290;-75
2023/09/12 05:50:25;;;;;;;;;;;;;;;18.19;100.00;101189.53;5038212;28;1010;-74
2023/09/12 05:52:50;;;;;;;;;;;;;;;18.18;100.00;101184.44;5042849;28;1910;-74
2023/09/12 05:55:16;;;;;;;;;;;;;;;18.19;100.00;101189.53;5036931;28;1555;-74
2023/09/12 05:57:41;;;;;;;;;;;;;;;18.19;100.00;101200.03;5035108;28;1286;-75
2023/09/12 06:00:11;;;;;;;;;;;;;;;18.17;100.00;101203.78;5027281;28;1520;-75
2023/09/12 06:02:36;;;;;;;;;;;;;;;18.17;100.00;101203.78;5032840;28;1098;-74
2023/09/12 06:05:02;;;;;;;;;;;;;;;18.17;100.00;101207.25;5031187;28;1135;-77
2023/09/12 06:07:28;;;;;;;;;;;;;;;18.16;100.00;101204.78;5035921;28;1162;-75
2023/09/12 06:09:53;;;;;;;;;;;;;;;18.18;100.00;101208.06;5037347;28;1062;-75
2023/09/12 06:12:18;;;;;;;;;;;;;;;18.18;100.00;101202.81;5029199;28;1905;-76
2023/09/12 06:14:43;;;;;;;;;;;;;;;18.20;100.00;101206.09;5031828;28;1078;-76
2023/09/12 06:17:09;;;;;;;;;;;;;;;18.22;100.00;101212.81;5029939;28;1120;-74
2023/09/12 06:19:34;;;;;;;;;;;;;;;18.24;100.00;101210.03;5029476;28;934;-75
2023/09/12 06:21:59;;;;;;;;;;;;;;;18.25;100.00;101206.44;5031538;28;1157;-75
2023/09/12 06:24:24;;;;;;;;;;;;;;;18.26;100.00;101213.31;5032206;28;1135;-75
2023/09/12 06:26:49;;;;;;;;;;;;;;;18.28;100.00;101219.22;5033654;28;1177;-75
2023/09/12 06:29:15;;;;;;;;;;;;;;;18.26;100.00;101221.19;5026603;28;1030;-74
2023/09/12 06:31:41;;;;;;;;;;;;;;;18.25;100.00;101224.81;5030238;28;1898;-76
2023/09/12 06:34:06;;;;;;;;;;;;;;;18.27;100.00;101228.06;5022289;28;1090;-74
2023/09/12 06:36:31;;;;;;;;;;;;;;;18.28;100.00;101224.47;5025186;28;1157;-76
2023/09/12 06:38:57;;;;;;;;;;;;;;;18.28;100.00;101234.97;5026542;28;1164;-74
2023/09/12 06:41:22;;;;;;;;;;;;;;;18.29;100.00;101223.47;5032739;28;1089;-76
2023/09/12 06:43:47;;;;;;;;;;;;;;;18.33;100.00;101227.41;5037616;28;981;-75
2023/09/12 06:46:13;;;;;;;;;;;;;;;18.31;100.00;101224.16;5034825;28;1175;-76
2023/09/12 06:48:38;;;;;;;;;;;;;;;18.33;100.00;101226.59;5036186;28;980;-75
2023/09/12 06:51:08;;;;;;;;;;;;;;;18.33;100.00;101227.41;5032654;28;1152;-77
2023/09/12 06:53:33;;;;;;;;;;;;;;;18.32;100.00;101228.41;5028055;28;1951;-75
2023/09/12 06:55:58;;;;;;;;;;;;;;;18.31;100.00;101219.72;5023843;28;1216;-74
2023/09/12 06:58:24;;;;;;;;;;;;;;;18.36;100.00;101221.84;5032254;28;1176;-74
2023/09/12 07:00:49;;;;;;;;;;;;;;;18.40;100.00;101222.31;5033338;28;1094;-76
2023/09/12 07:03:14;;;;;;;;;;;;;;;18.41;100.00;101216.91;5032897;28;1120;-74
2023/09/12 07:05:41;;;;;;;;;;;;;;;18.42;100.00;101205.41;5027132;28;1109;-75
2023/09/12 07:08:06;;;;;;;;;;;;;;;18.43;100.00;101212.31;5036050;28;1115;-75
2023/09/12 07:10:31;;;;;;;;;;;;;;;18.44;100.00;101203.44;5027066;28;1419;-75
2023/09/12 07:12:57;;;;;;;;;;;;;;;18.46;100.00;101200.63;5024305;28;1898;-74
2023/09/12 07:15:22;;;;;;;;;;;;;;;18.47;100.00;101197.84;5023055;28;1233;-75
2023/09/12 07:17:47;;;;;;;;;;;;;;;18.48;100.00;101207.38;5031760;28;1149;-74
2023/09/12 07:20:12;;;;;;;;;;;;;;;18.49;100.00;101216.88;5026345;28;1177;-78
2023/09/12 07:22:39;;;;;;;;;;;;;;;18.53;100.00;101207.69;5028611;28;1389;-74
2023/09/12 07:25:05;;;;;;;;;;;;;;;18.58;100.00;101221.16;5032745;28;1139;-74
2023/09/12 07:27:30;;;;;;;;;;;;;;;18.66;100.00;101227.38;5028700;28;1293;-74
2023/09/12 07:29:55;;;;;;;;;;;;;;;18.71;100.00;101225.09;5032272;28;1152;-74
2023/09/12 07:32:21;;;;;;;;;;;;;;;18.76;100.00;101238.53;5026197;28;1922;-77
2023/09/12 07:34:48;;;;;;;;;;;;;;;18.77;100.00;101240.19;5027806;28;1142;-75
2023/09/12 07:37:13;;;;;;;;;;;;;;;18.78;100.00;101241.81;5028494;28;1075;-75
2023/09/12 07:39:38;;;;;;;;;;;;;;;18.80;100.00;101239.81;5028369;28;1148;-75
2023/09/12 07:42:04;;;;;;;;;;;;;;;18.81;100.00;101241.50;5025435;28;1203;-75
2023/09/12 07:44:29;;;;;;;;;;;;;;;18.82;100.00;101235.25;5031602;28;1330;-74
2023/09/12 07:46:54;;;;;;;;;;;;;;;18.84;100.00;101241.13;5034001;28;1239;-75
2023/09/12 07:49:20;;;;;;;;;;;;;;;18.87;100.00;101246.06;5037560;28;996;-75
2023/09/12 07:51:45;;;;;;;;;;;;;;;18.86;100.00;101239.16;5037265;28;1898;-74
2023/09/12 07:54:10;;;;;;;;;;;;;;;18.90;100.00;101235.19;5039731;28;1120;-75
2023/09/12 07:56:35;;;;;;;;;;;;;;;18.92;100.00;101233.22;5037366;28;1106;-75
2023/09/12 07:59:00;;;;;;;;;;;;;;;18.94;100.00;101241.78;5036399;28;1266;-75
2023/09/12 08:01:27;;;;;;;;;;;;;;;18.98;100.00;101236.97;5025014;28;1131;-76
2023/09/12 08:03:52;;;;;;;;;;;;;;;19.02;100.00;101230.38;5034526;28;1143;-76
2023/09/12 08:06:17;;;;;;;;;;;;;;;19.10;100.00;101236.44;5034377;28;1171;-75
2023/09/12 08:08:42;;;;;;;;;;;;;;;19.17;100.00;101241.03;5026720;28;1106;-76
2023/09/12 08:11:08;;;;;;;;;;;;;;;19.24;100.00;101247.22;5028910;28;1485;-75
2023/09/12 08:13:33;;;;;;;;;;;;;;;19.28;100.00;101248.53;5033150;28;1954;-76
2023/09/12 08:15:59;;;;;;;;;;;;;;;19.35;100.00;101254.75;5032730;28;1255;-75
2023/09/12 08:18:29;;;;;;;;;;;;;;;19.35;100.00;101254.75;5023208;28;1280;-75
2023/09/12 08:20:54;;;;;;;;;;;;;;;19.39;100.00;101253.41;5029963;28;1173;-75
2023/09/12 08:23:19;;;;;;;;;;;;;;;19.47;100.00;101247.28;5028715;28;1177;-75
2023/09/12 08:25:44;;;;;;;;;;;;;;;19.54;100.00;101243.78;5026251;28;1419;-74
2023/09/12 08:28:09;;;;;;;;;;;;;;;19.55;100.00;101245.41;5027658;28;1213;-75
2023/09/12 08:30:35;;;;;;;;;;;;;;;19.58;100.00;101250.38;5023990;28;1368;-76
2023/09/12 08:33:03;;;;;;;;;;;;;;;19.61;100.00;101255.28;5025461;28;1898;-75
2023/09/12 08:35:28;;;;;;;;;;;;;;;19.68;100.00;101259.88;5025835;28;1110;-75
2023/09/12 08:37:53;;;;;;;;;;;;;;;19.84;100.00;101262.34;5028409;28;1158;-76
2023/09/12 08:40:18;;;;;;;;;;;;;;;19.86;100.00;101263.03;5025344;28;1144;-76
2023/09/12 08:42:44;;;;;;;;;;;;;;;19.86;100.00;101260.41;5022709;28;1113;-74
2023/09/12 08:45:14;;;;;;;;;;;;;;;19.93;100.00;101263.97;5023245;28;1461;-75
2023/09/12 08:47:41;;;;;;;;;;;;;;;20.01;100.00;101261.25;5022896;28;1212;-74
2023/09/12 08:50:07;;;;;;;;;;;;;;;20.03;100.00;101259.28;5021098;28;1125;-74
2023/09/12 08:52:32;;;;;;;;;;;;;;;20.08;100.00;101259.56;5032340;28;1902;-74
2023/09/12 08:54:58;;;;;;;;;;;;;;;20.15;100.00;101268.41;5025135;28;1188;-74
2023/09/12 08:57:24;;;;;;;;;;;;;;;20.23;100.00;101279.84;5027627;28;1251;-73
2023/09/12 08:59:50;;;;;;;;;;;;;;;20.25;100.00;101272.63;5034325;28;1249;-73
2023/09/12 09:02:15;;;;;;;;;;;;;;;20.30;100.00;101275.50;5025623;28;1188;-73
2023/09/12 09:04:41;;;;;;;;;;;;;;;20.36;100.00;101264.28;5036453;28;1097;-74
2023/09/12 09:07:06;;;;;;;;;;;;;;;20.43;100.00;101275.75;5030231;28;1235;-74
2023/09/12 09:09:33;;;;;;;;;;;;;;;20.52;100.00;101271.22;5026301;28;1174;-73
2023/09/12 09:11:58;;;;;;;;;;;;;;;20.57;100.00;101277.59;5025902;28;1949;-74
2023/09/12 09:14:23;;;;;;;;;;;;;;;20.59;100.00;101275.63;5029036;28;1417;-75
2023/09/12 09:16:49;;;;;;;;;;;;;;;20.66;100.00;101284.44;5028828;28;1148;-73
2023/09/12 09:19:16;;;;;;;;;;;;;;;20.76;100.00;101296.53;5026177;28;1434;-74
2023/09/12 09:21:41;;;;;;;;;;;;;;;20.90;100.00;101293.09;5026813;28;1104;-75
2023/09/12 09:24:08;;;;;;;;;;;;;;;21.06;99.17;101290.28;5032271;28;1168;-73
2023/09/12 09:26:43;;;;;;;;;;;;;;;21.01;99.50;101290.00;5035268;28;1113;-74
2023/09/12 09:29:10;;;;;;;;;;;;;;;21.06;99.05;101295.56;5031237;28;1257;-73
2023/09/12 09:31:39;;;;;;;;;;;;;;;21.08;97.48;101285.63;5028273;28;1895;-74
2023/09/12 09:34:09;;;;;;;;;;;;;;;21.10;98.81;101288.88;5031496;28;1203;-74
2023/09/12 09:36:35;;;;;;;;;;;;;;;21.21;98.18;101288.44;5033256;28;1212;-73
2023/09/12 09:39:04;;;;;;;;;;;;;;;21.27;97.84;101283.41;5028606;28;1440;-74
2023/09/12 09:41:30;;;;;;;;;;;;;;;21.30;97.72;101280.47;5028847;28;1028;-74
2023/09/12 09:43:55;;;;;;;;;;;;;;;21.39;97.84;101292.53;5027916;28;1045;-75
2023/09/12 09:46:20;;;;;;;;;;;;;;;21.52;97.10;101287.44;5027592;28;1083;-76
2023/09/12 09:48:49;;;;;;;;;;;;;;;21.58;97.05;101294.59;5031055;28;1021;-75
2023/09/12 09:51:14;;;;;;;;;;;;;;;21.68;96.35;101281.09;5025630;28;1010;-75
2023/09/12 09:53:39;;;;;;;;;;;;;;;21.76;96.20;101288.09;5030506;28;1894;-74
2023/09/12 09:56:11;;;;;;;;;;;;;;;21.84;95.33;101280.84;5027815;28;1315;-75
2023/09/12 09:58:42;;;;;;;;;;;;;;;21.91;94.95;101270.38;5031681;28;1429;-75
2023/09/12 10:01:08;;;;;;;;;;;;;;;22.02;94.49;101269.84;5027553;28;1165;-76
2023/09/12 10:03:35;;;;;;;;;;;;;;;22.15;93.80;101275.28;5045796;28;1029;-76
2023/09/12 10:06:04;;;;;;;;;;;;;;;22.27;93.46;101271.13;5036296;28;1043;-75
2023/09/12 10:08:30;;;;;;;;;;;;;;;22.27;93.12;101271.13;5035487;28;1349;-75
2023/09/12 10:10:56;;;;;;;;;;;;;;;22.34;92.28;101267.72;5039464;28;1180;-75
2023/09/12 10:13:26;;;;;;;;;;;;;;;22.31;91.49;101266.28;5035708;28;1893;-76
2023/09/12 10:15:53;;;;;;;;;;;;;;;22.32;91.41;101269.75;5038568;28;1081;-75
2023/09/12 10:18:19;;;;;;;;;;;;;;;22.37;91.38;101259.41;5029942;28;1145;-75
2023/09/12 10:20:47;;;;;;;;;;;;;;;22.41;90.35;101265.94;5024433;28;1287;-75
2023/09/12 10:23:17;;;;;;;;;;;;;;;22.45;90.81;101256.63;5030760;28;1202;-75
2023/09/12 10:25:43;;;;;;;;;;;;;;;22.49;90.82;101247.28;5028042;28;1250;-76
2023/09/12 10:28:09;;;;;;;;;;;;;;;22.52;90.49;101252.19;5030008;28;1531;-75
2023/09/12 10:30:35;;;;;;;;;;;;;;;22.55;89.63;101251.81;5032355;28;1160;-76
2023/09/12 10:33:01;;;;;;;;;;;;;;;22.47;88.93;101260.69;5027382;28;1957;-75
2023/09/12 10:35:27;;;;;;;;;;;;;;;22.45;88.76;101261.91;5024924;28;1184;-75
2023/09/12 10:37:54;;;;;;;;;;;;;;;22.49;88.60;101271.91;5025839;28;1308;-76
2023/09/12 10:40:19;;;;;;;;;;;;;;;22.47;87.82;101273.91;5029758;28;1723;-75
2023/09/12 10:42:45;;;;;;;;;;;;;;;22.53;88.35;101269.66;5023669;28;1190;-76
2023/09/12 10:45:11;;;;;;;;;;;;;;;22.60;88.20;101275.84;5029795;28;1430;-76
2023/09/12 10:47:36;;;;;;;;;;;;;;;22.63;86.07;101275.44;5030684;28;1117;-76
2023/09/12 10:50:02;;;;;;;;;;;;;;;22.70;87.57;101271.00;5026807;28;1495;-75
2023/09/12 10:52:28;;;;;;;;;;;;;;;22.89;87.50;101276.66;5024934;28;1953;-75
2023/09/12 10:54:53;;;;;;;;;;;;;;;23.05;86.24;101276.31;5025257;28;1379;-76
2023/09/12 10:57:19;;;;;;;;;;;;;;;23.03;85.58;101275.69;5027443;28;1256;-75
2023/09/12 10:59:59;;;;;;;;;;;;;;;23.02;85.79;101269.59;5022249;28;1209;-75
2023/09/12 11:02:27;;;;;;;;;;;;;;;23.05;84.99;101263.09;5035016;28;1120;-75
2023/09/12 11:04:52;;;;;;;;;;;;;;;23.06;84.07;101270.03;5024158;28;1387;-75
2023/09/12 11:07:31;;;;;;;;;;;;;;;23.07;82.32;101255.78;5028717;28;1609;-75
2023/09/12 11:10:26;;;;;;;;;;;;;;;23.01;81.76;101256.56;5017812;28;1667;-76
2023/09/12 11:12:52;;;;;;;;;;;;;;;23.05;82.65;101257.78;5020037;28;1917;-75
2023/09/12 11:15:19;;;;;;;;;;;;;;;23.16;82.63;101259.88;5031238;28;1219;-75
2023/09/12 11:17:45;;;;;;;;;;;;;;;23.22;81.09;101250.34;5033571;28;1201;-76
2023/09/12 11:20:11;;;;;;;;;;;;;;;23.37;81.50;101260.78;5028735;28;1179;-77
2023/09/12 11:22:41;;;;;;;;;;;;;;;23.31;80.02;101254.44;5026737;28;1194;-75
2023/09/12 11:25:15;;;;;;;;;;;;;;;23.30;79.80;101258.94;5030428;28;1155;-76
2023/09/12 11:27:52;;;;;;;;;;;;;;;23.36;80.10;101248.56;5024743;28;1133;-75
2023/09/12 11:30:21;;;;;;;;;;;;;;;23.36;79.08;101253.84;5023195;28;1201;-76
2023/09/12 11:32:47;;;;;;;;;;;;;;;23.41;80.03;101254.09;5029151;28;1894;-76
2023/09/12 11:35:13;;;;;;;;;;;;;;;23.44;77.43;101251.03;5031948;28;1347;-77
2023/09/12 11:37:38;;;;;;;;;;;;;;;23.48;77.25;101255.72;5030432;28;1418;-75
2023/09/12 11:40:23;;;;;;;;;;;;;;;23.52;78.66;101264.09;5028700;28;987;-77
2023/09/12 11:42:52;;;;;;;;;;;;;;;23.57;78.12;101259.03;5029035;28;1104;-75
2023/09/12 11:45:18;;;;;;;;;;;;;;;23.69;78.03;101252.16;5030637;28;1184;-75
2023/09/12 11:47:44;;;;;;;;;;;;;;;23.75;77.33;101259.28;5026694;28;1220;-76
2023/09/12 11:50:45;;;;;;;;;;;;;;;23.89;78.35;101254.00;5023725;28;1510;-75
2023/09/12 11:53:11;;;;;;;;;;;;;;;24.09;78.16;101252.19;4969596;28;1953;-76
2023/09/12 11:55:38;;;;;;;;;;;;;;;24.15;75.30;101259.31;5019197;28;1074;-75
2023/09/12 11:58:03;;;;;;;;;;;;;;;24.11;76.13;101264.19;5031157;28;910;-76
2023/09/12 12:00:28;;;;;;;;;;;;;;;24.06;75.47;101266.63;5025721;28;1026;-75
2023/09/12 12:02:54;;;;;;;;;;;;;;;24.04;73.67;101260.75;5029894;28;935;-76
2023/09/12 12:05:20;;;;;;;;;;;;;;;24.00;75.27;101256.84;5017734;28;1118;-76
2023/09/12 12:07:47;;;;;;;;;;;;;;;24.00;74.97;101248.91;5023263;28;1295;-75
2023/09/12 12:10:13;;;;;;;;;;;;;;;24.08;73.95;101248.69;5028792;28;1197;-75
2023/09/12 12:12:38;;;;;;;;;;;;;;;23.99;73.61;101244.63;5030177;28;1894;-75
2023/09/12 12:15:03;;;;;;;;;;;;;;;23.95;73.30;101245.22;5023577;28;1130;-76
2023/09/12 12:17:28;;;;;;;;;;;;;;;23.97;74.57;101248.47;5027140;28;1458;-76
2023/09/12 12:19:54;;;;;;;;;;;;;;;24.02;73.55;101243.41;5028328;28;1199;-76
2023/09/12 12:22:19;;;;;;;;;;;;;;;24.03;73.17;101245.88;5026885;28;1543;-76
2023/09/12 12:24:45;;;;;;;;;;;;;;;24.12;74.60;101233.22;5026283;28;1247;-75
2023/09/12 12:27:11;;;;;;;;;;;;;;;24.18;72.04;101237.69;5042207;28;1132;-75
2023/09/12 12:29:37;;;;;;;;;;;;;;;24.17;73.59;101235.25;5034134;28;1192;-75
2023/09/12 12:32:02;;;;;;;;;;;;;;;24.19;73.14;101228.72;5034919;28;1942;-76
2023/09/12 12:34:28;;;;;;;;;;;;;;;24.30;73.19;101230.75;5031323;28;1471;-75
2023/09/12 12:36:54;;;;;;;;;;;;;;;24.36;72.80;101235.25;5028994;28;1138;-75